Aktuální počasí v Tlučné 

Teplota 4.9 °C
Minimální teplota 2.1 °C Maximální teplota 6.9 °C
Teplota rosného bodu 3.1 °C Pocitová teplota 2.9 °C
Tlak 1008.8 hPa
Směr a rychlost větru ENE 2.5 m/s
» 3.2 m/s
vlhkost 88.0 %
Teplota 0.0  mm/h
SlunceUV2.88 dnes zítra
↑ 06:03 ↑ 06:01
↓ 18:23 ↓ 18:25
   
Měsíc dnes zítra
↑ 02:55 ↑ 03:37
↓ 12:07 ↓ 13:07
   
  LKLN Metar
  LKLN Metar
2017/03/22 21:02
LKLN 222102Z AUTO VRB02KT 4400 BR SCT013 OVC017 05/05 Q1016
Rychlost a směr větru Proměnlivý
3.7 km/h
--
4.4 km
14435.7 ft
Zataženo (518 m) Polojasno (396 m)
Teplota 5 °C
Rosný bod 5°C
 
Tlak 1016 hPa
762.1 mmHg
 
  YR.no meteogram
  YR.no meteogram
Meteogram YR.no
  IN-Pocasi.cz
  IN-Pocasi.cz
In-Pocasi logo




  PocasiIdnes     CHMI     MeteoPress     Radar     Radar2  


  Valid XHTML 1.0 Transitional  


Provozni a servisni denik

Popis

ČKD / FAQ